createdAt,value
2023-01-18T00:01:20.480Z,0.90
2023-01-18T00:03:48.220Z,0.80
2023-01-18T00:06:16.613Z,0.80
2023-01-18T00:08:43.733Z,0.80
2023-01-18T00:11:17.169Z,0.80
2023-01-18T00:13:44.822Z,0.90
2023-01-18T00:16:15.198Z,0.80
2023-01-18T00:18:43.223Z,0.80
2023-01-18T00:21:12.604Z,0.90
2023-01-18T00:23:39.829Z,0.90
2023-01-18T00:26:09.621Z,0.90
2023-01-18T00:28:38.139Z,0.90
2023-01-18T00:31:29.414Z,0.90
2023-01-18T00:33:56.535Z,0.90
2023-01-18T00:36:24.686Z,0.90
2023-01-18T00:38:52.780Z,0.90
2023-01-18T00:41:21.966Z,0.90
2023-01-18T00:43:49.279Z,0.90
2023-01-18T00:46:22.700Z,0.90
2023-01-18T00:48:52.325Z,0.90
2023-01-18T00:51:25.285Z,0.90
2023-01-18T00:53:52.810Z,0.80
2023-01-18T00:56:22.185Z,0.80
2023-01-18T00:58:49.766Z,0.80
2023-01-18T01:01:17.507Z,0.80
2023-01-18T01:04:03.333Z,0.60
2023-01-18T01:06:44.773Z,0.70
2023-01-18T01:09:14.511Z,0.50
2023-01-18T01:12:01.750Z,0.50
2023-01-18T01:14:47.472Z,0.40
2023-01-18T01:17:33.265Z,0.30
2023-01-18T01:20:18.954Z,0.20
2023-01-18T01:23:04.655Z,0.20
2023-01-18T01:25:50.565Z,0.10
2023-01-18T01:28:17.774Z,0.10
2023-01-18T01:30:45.535Z,0.00
2023-01-18T01:33:13.082Z,0.00
2023-01-18T01:35:40.258Z,0.00
2023-01-18T01:38:07.334Z,0.00
2023-01-18T01:40:34.798Z,0.00
2023-01-18T01:43:02.246Z,0.00
2023-01-18T01:45:31.575Z,0.00
2023-01-18T01:47:59.049Z,0.00
2023-01-18T01:50:33.638Z,0.00
2023-01-18T01:53:00.980Z,0.10
2023-01-18T01:55:36.485Z,0.10
2023-01-18T01:58:23.053Z,0.00
2023-01-18T02:00:50.931Z,0.10
2023-01-18T02:03:18.797Z,0.10
2023-01-18T02:06:19.419Z,0.20
2023-01-18T02:08:49.364Z,0.10
2023-01-18T02:11:16.379Z,0.30
2023-01-18T02:13:43.524Z,0.30
2023-01-18T02:16:38.091Z,0.30
2023-01-18T02:19:33.073Z,0.20
2023-01-18T02:22:59.617Z,0.20
2023-01-18T02:25:51.721Z,0.10
2023-01-18T02:28:24.999Z,0.20
2023-01-18T02:31:14.472Z,0.20
2023-01-18T02:33:56.697Z,0.20
2023-01-18T02:36:42.325Z,0.20
2023-01-18T02:39:38.287Z,0.10
2023-01-18T02:42:46.592Z,0.00
2023-01-18T02:45:50.169Z,0.00
2023-01-18T02:48:23.903Z,0.00
2023-01-18T02:50:52.623Z,0.10
2023-01-18T02:53:20.189Z,0.20
2023-01-18T02:56:06.610Z,-0.10
2023-01-18T02:58:40.204Z,0.00
2023-01-18T03:01:35.243Z,0.00
2023-01-18T03:04:30.776Z,0.00
2023-01-18T03:07:12.128Z,0.00
2023-01-18T03:09:41.312Z,0.10
2023-01-18T03:12:27.507Z,0.00
2023-01-18T03:15:13.456Z,0.10
2023-01-18T03:17:52.084Z,0.00
2023-01-18T03:20:25.929Z,-0.10
2023-01-18T03:23:36.490Z,-0.10
2023-01-18T03:26:15.249Z,0.00
2023-01-18T03:29:03.999Z,0.00
2023-01-18T03:32:17.731Z,-0.10
2023-01-18T03:35:01.035Z,-0.10
2023-01-18T03:37:39.950Z,0.00
2023-01-18T03:40:15.843Z,0.00
2023-01-18T03:43:06.220Z,0.00
2023-01-18T03:45:43.656Z,0.00
2023-01-18T03:48:11.945Z,0.00
2023-01-18T03:50:54.020Z,0.10
2023-01-18T03:54:10.657Z,0.10
2023-01-18T03:57:03.333Z,0.10
2023-01-18T03:59:35.663Z,0.10
2023-01-18T04:02:05.134Z,0.00
2023-01-18T04:04:32.654Z,0.10
2023-01-18T04:06:59.932Z,0.00
2023-01-18T04:09:27.705Z,0.00
2023-01-18T04:11:54.829Z,0.00
2023-01-18T04:14:22.001Z,0.00
2023-01-18T04:16:49.144Z,-0.10
2023-01-18T04:19:17.845Z,-0.20
2023-01-18T04:21:45.145Z,-0.10
2023-01-18T04:24:12.574Z,-0.10
2023-01-18T04:26:39.710Z,-0.20
2023-01-18T04:29:06.818Z,-0.10
2023-01-18T04:31:34.023Z,-0.10
2023-01-18T04:34:01.083Z,-0.20
2023-01-18T04:36:28.504Z,-0.10
2023-01-18T04:38:56.226Z,-0.20
2023-01-18T04:41:23.855Z,-0.20
2023-01-18T04:43:52.065Z,-0.20
2023-01-18T04:46:19.408Z,-0.20
2023-01-18T04:48:51.488Z,-0.20
2023-01-18T04:51:21.120Z,-0.30
2023-01-18T04:53:48.199Z,-0.30
2023-01-18T04:56:16.460Z,-0.30
2023-01-18T04:58:44.187Z,-0.30
2023-01-18T05:01:14.251Z,-0.30
2023-01-18T05:03:41.814Z,-0.40
2023-01-18T05:06:12.832Z,-0.40
2023-01-18T05:08:42.853Z,-0.40
2023-01-18T05:11:16.669Z,-0.40
2023-01-18T05:13:44.594Z,-0.40
2023-01-18T05:16:29.927Z,-0.40
2023-01-18T05:18:57.181Z,-0.40
2023-01-18T05:21:24.207Z,-0.40
2023-01-18T05:23:51.304Z,-0.30
2023-01-18T05:26:22.415Z,-0.30
2023-01-18T05:28:51.276Z,-0.40
2023-01-18T05:31:21.284Z,-0.40
2023-01-18T05:33:49.125Z,-0.40
2023-01-18T05:36:16.277Z,-0.40
2023-01-18T05:38:43.475Z,-0.40
2023-01-18T05:41:10.570Z,-0.50
2023-01-18T05:43:38.321Z,-0.50
2023-01-18T05:46:07.004Z,-0.50
2023-01-18T05:48:34.203Z,-0.50
2023-01-18T05:51:07.955Z,-0.50
2023-01-18T05:53:35.700Z,-0.40
2023-01-18T05:56:06.132Z,-0.40
2023-01-18T05:58:33.925Z,-0.40
2023-01-18T06:01:01.229Z,-0.40
2023-01-18T06:03:28.296Z,-0.40
2023-01-18T06:05:55.368Z,-0.40
2023-01-18T06:08:22.575Z,-0.40
2023-01-18T06:10:57.754Z,-0.40
2023-01-18T06:13:30.005Z,-0.30
2023-01-18T06:15:59.124Z,-0.30
2023-01-18T06:18:29.751Z,-0.30
2023-01-18T06:21:01.017Z,-0.40
2023-01-18T06:23:30.059Z,-0.40
2023-01-18T06:25:57.282Z,-0.40
2023-01-18T06:28:26.219Z,-0.40
2023-01-18T06:30:55.495Z,-0.40
2023-01-18T06:33:24.346Z,-0.40
2023-01-18T06:35:52.326Z,-0.40
2023-01-18T06:38:19.646Z,-0.40
2023-01-18T06:40:46.718Z,-0.40
2023-01-18T06:43:14.479Z,-0.40
2023-01-18T06:45:42.009Z,-0.50
2023-01-18T06:48:09.362Z,-0.50
2023-01-18T06:50:36.435Z,-0.60
2023-01-18T06:53:03.721Z,-0.60
2023-01-18T06:55:30.815Z,-0.60
2023-01-18T06:57:57.864Z,-0.60
2023-01-18T07:00:25.161Z,-0.60
2023-01-18T07:02:53.198Z,-0.70
2023-01-18T07:05:21.141Z,-0.70
2023-01-18T07:07:48.235Z,-0.70
2023-01-18T07:10:16.791Z,-0.70
2023-01-18T07:12:48.976Z,-0.70
2023-01-18T07:15:21.888Z,-0.80
2023-01-18T07:17:50.688Z,-0.80
2023-01-18T07:20:19.764Z,-0.80
2023-01-18T07:22:52.764Z,-0.80
2023-01-18T07:25:20.928Z,-0.80
2023-01-18T07:27:49.200Z,-0.90
2023-01-18T07:30:17.325Z,-0.80
2023-01-18T07:32:51.174Z,-0.90
2023-01-18T07:35:22.220Z,-0.90
2023-01-18T07:37:53.179Z,-0.90
2023-01-18T07:40:23.700Z,-0.80
2023-01-18T07:43:02.872Z,-0.80
2023-01-18T07:45:30.479Z,-0.80
2023-01-18T07:47:57.552Z,-0.80
2023-01-18T07:50:24.694Z,-0.80
2023-01-18T07:52:51.815Z,-0.80
2023-01-18T07:55:21.216Z,-0.70
2023-01-18T07:57:48.649Z,-0.70
2023-01-18T08:00:17.385Z,-0.70
2023-01-18T08:02:44.900Z,-0.70
2023-01-18T08:05:11.975Z,-0.50
2023-01-18T08:07:39.027Z,-0.50
2023-01-18T08:10:06.418Z,-0.40
2023-01-18T08:12:33.592Z,-0.40
2023-01-18T08:15:00.916Z,-0.30
2023-01-18T08:17:29.823Z,-0.20
2023-01-18T08:19:57.520Z,-0.20
2023-01-18T08:22:24.634Z,-0.10
2023-01-18T08:24:51.716Z,-0.10
2023-01-18T08:27:19.215Z,0.00
2023-01-18T08:29:47.118Z,0.00
2023-01-18T08:32:14.833Z,0.10
2023-01-18T08:34:42.036Z,0.10
2023-01-18T08:37:09.225Z,0.10
2023-01-18T08:39:36.282Z,0.20
2023-01-18T08:42:03.632Z,0.20
2023-01-18T08:44:30.743Z,0.20
2023-01-18T08:46:57.808Z,0.20
2023-01-18T08:49:24.868Z,0.20
2023-01-18T08:51:51.948Z,0.30
2023-01-18T08:54:19.198Z,0.30
2023-01-18T08:56:46.212Z,0.30
2023-01-18T08:59:13.419Z,0.40
2023-01-18T09:01:40.591Z,0.40
2023-01-18T09:04:07.720Z,0.40
2023-01-18T09:06:34.893Z,0.40
2023-01-18T09:09:02.170Z,0.40
2023-01-18T09:11:29.362Z,0.50
2023-01-18T09:14:01.563Z,0.50
2023-01-18T09:16:30.737Z,0.60
2023-01-18T09:18:58.782Z,0.60
2023-01-18T09:21:28.081Z,0.60
2023-01-18T09:23:55.418Z,0.60
2023-01-18T09:26:22.573Z,0.70
2023-01-18T09:28:52.606Z,0.70
2023-01-18T09:31:22.957Z,0.70
2023-01-18T09:33:53.636Z,0.80
2023-01-18T09:36:26.560Z,0.80
2023-01-18T09:38:55.767Z,0.80
2023-01-18T09:41:47.532Z,0.80
2023-01-18T09:44:18.111Z,0.90
2023-01-18T09:46:52.592Z,1.00
2023-01-18T09:49:46.540Z,1.00
2023-01-18T09:53:00.720Z,1.10
2023-01-18T09:55:57.191Z,1.10
2023-01-18T09:58:59.392Z,1.20
2023-01-18T10:01:32.514Z,1.10
2023-01-18T10:04:17.337Z,1.20
2023-01-18T10:06:54.325Z,1.30
2023-01-18T10:09:25.780Z,1.40
2023-01-18T10:12:02.236Z,1.30
2023-01-18T10:14:48.367Z,1.20
2023-01-18T10:17:23.064Z,1.20
2023-01-18T10:19:50.710Z,1.20
2023-01-18T10:22:32.030Z,1.20
2023-01-18T10:25:14.375Z,1.20
2023-01-18T10:28:08.514Z,1.10
2023-01-18T10:31:15.548Z,1.10
2023-01-18T10:33:45.001Z,1.00
2023-01-18T10:36:40.274Z,0.90
2023-01-18T10:39:36.097Z,0.90
2023-01-18T10:42:06.523Z,1.00
2023-01-18T10:44:33.924Z,1.00
2023-01-18T10:47:02.117Z,1.00
2023-01-18T10:49:42.589Z,1.00
2023-01-18T10:52:29.450Z,1.00
2023-01-18T10:55:03.335Z,1.00
2023-01-18T10:57:36.428Z,1.10
2023-01-18T11:00:12.636Z,1.00
2023-01-18T11:02:40.811Z,1.10
2023-01-18T11:05:38.427Z,1.20
2023-01-18T11:08:24.272Z,1.30
2023-01-18T11:11:47.915Z,1.30
2023-01-18T11:14:30.898Z,1.20
2023-01-18T11:17:11.118Z,1.20
2023-01-18T11:19:39.228Z,1.30
2023-01-18T11:22:13.809Z,1.30
2023-01-18T11:24:40.931Z,1.30
2023-01-18T11:27:14.379Z,1.40
2023-01-18T11:29:45.262Z,1.50
2023-01-18T11:32:22.430Z,1.50
2023-01-18T11:34:53.830Z,1.50
2023-01-18T11:37:37.925Z,1.70
2023-01-18T11:40:20.673Z,1.80
2023-01-18T11:42:51.346Z,1.70
2023-01-18T11:45:54.007Z,1.80
2023-01-18T11:48:48.639Z,1.80
2023-01-18T11:51:43.703Z,1.80
2023-01-18T11:54:26.756Z,1.60
2023-01-18T11:56:59.839Z,1.60
2023-01-18T11:59:37.883Z,1.60
2023-01-18T12:02:57.359Z,1.60
2023-01-18T12:06:18.063Z,1.80
2023-01-18T12:09:42.803Z,1.70
2023-01-18T12:12:40.847Z,2.10
2023-01-18T12:15:47.009Z,2.60
2023-01-18T12:18:57.473Z,2.80
2023-01-18T12:22:06.043Z,2.80
2023-01-18T12:25:06.920Z,2.90
2023-01-18T12:27:46.912Z,3.40
2023-01-18T12:31:03.149Z,3.50
2023-01-18T12:33:51.518Z,3.60
2023-01-18T12:36:47.364Z,3.70
2023-01-18T12:40:05.261Z,4.00
2023-01-18T12:43:03.421Z,4.50
2023-01-18T12:45:41.053Z,4.70
2023-01-18T12:48:28.033Z,4.50
2023-01-18T12:50:56.752Z,4.80
2023-01-18T12:53:44.626Z,5.10
2023-01-18T12:56:22.832Z,4.80
2023-01-18T12:58:58.554Z,4.40
2023-01-18T13:01:31.522Z,4.80
2023-01-18T13:04:13.323Z,4.80
2023-01-18T13:06:42.076Z,4.80
2023-01-18T13:09:28.829Z,4.90
2023-01-18T13:11:58.543Z,5.30
2023-01-18T13:14:54.191Z,5.30
2023-01-18T13:17:40.844Z,5.40
2023-01-18T13:20:29.180Z,5.90
2023-01-18T13:23:27.232Z,6.20
2023-01-18T13:26:18.564Z,6.20
2023-01-18T13:28:46.414Z,5.50
2023-01-18T13:31:13.738Z,4.90
2023-01-18T13:33:45.677Z,4.50
2023-01-18T13:36:19.791Z,4.50
2023-01-18T13:38:53.416Z,4.00
2023-01-18T13:41:29.523Z,3.80
2023-01-18T13:44:03.091Z,3.50
2023-01-18T13:46:38.975Z,3.10
2023-01-18T13:49:36.139Z,2.90
2023-01-18T13:52:35.765Z,3.10
2023-01-18T13:55:31.409Z,3.50
2023-01-18T13:57:58.947Z,3.50
2023-01-18T14:00:27.264Z,3.60
2023-01-18T14:03:06.176Z,3.60
2023-01-18T14:05:42.843Z,3.60
2023-01-18T14:08:20.772Z,3.50
2023-01-18T14:10:54.948Z,3.40
2023-01-18T14:14:05.260Z,3.40
2023-01-18T14:16:54.609Z,3.30
2023-01-18T14:19:25.170Z,3.30
2023-01-18T14:22:16.371Z,3.20
2023-01-18T14:25:22.357Z,3.10
2023-01-18T14:28:05.486Z,3.00
2023-01-18T14:30:35.744Z,2.90
2023-01-18T14:33:25.888Z,2.60
2023-01-18T14:35:59.078Z,2.70
2023-01-18T14:38:27.004Z,2.70
2023-01-18T14:40:58.888Z,2.50
2023-01-18T14:43:38.010Z,2.30
2023-01-18T14:46:14.868Z,2.10
2023-01-18T14:48:52.373Z,2.00
2023-01-18T14:51:25.647Z,1.90
2023-01-18T14:53:58.196Z,1.90
2023-01-18T14:56:35.048Z,1.90
2023-01-18T14:59:24.404Z,2.00
2023-01-18T15:02:14.213Z,2.00
2023-01-18T15:04:45.633Z,1.90
2023-01-18T15:07:36.597Z,1.80
2023-01-18T15:10:03.851Z,1.80
2023-01-18T15:12:32.827Z,1.70
2023-01-18T15:15:15.703Z,1.70
2023-01-18T15:17:43.251Z,1.50
2023-01-18T15:20:15.601Z,1.40
2023-01-18T15:22:43.395Z,1.20
2023-01-18T15:25:31.906Z,1.20
2023-01-18T15:28:18.446Z,1.00
2023-01-18T15:30:53.813Z,0.90
2023-01-18T15:33:23.960Z,0.90
2023-01-18T15:35:57.954Z,0.90
2023-01-18T15:38:25.142Z,0.90
2023-01-18T15:41:05.473Z,0.90
2023-01-18T15:43:43.441Z,0.80
2023-01-18T15:46:15.288Z,0.60
2023-01-18T15:48:57.449Z,0.30
2023-01-18T15:51:44.293Z,0.10
2023-01-18T15:54:24.435Z,-0.10
2023-01-18T15:56:51.907Z,-0.30
2023-01-18T15:59:25.441Z,-0.50
2023-01-18T16:02:25.515Z,-0.60
2023-01-18T16:05:19.918Z,-0.80
2023-01-18T16:07:50.275Z,-0.90
2023-01-18T16:10:18.827Z,-1.10
2023-01-18T16:12:46.335Z,-1.20
2023-01-18T16:15:29.816Z,-1.40
2023-01-18T16:18:06.499Z,-1.50
2023-01-18T16:20:35.923Z,-1.60
2023-01-18T16:23:17.227Z,-1.70
2023-01-18T16:25:52.270Z,-1.80
2023-01-18T16:28:23.839Z,-1.90
2023-01-18T16:30:53.115Z,-2.00
2023-01-18T16:33:21.646Z,-2.00
2023-01-18T16:35:49.493Z,-2.00
2023-01-18T16:38:19.494Z,-2.10
2023-01-18T16:40:49.838Z,-2.20
2023-01-18T16:43:20.142Z,-2.30
2023-01-18T16:45:50.688Z,-2.30
2023-01-18T16:48:26.144Z,-2.30
2023-01-18T16:50:55.865Z,-2.30
2023-01-18T16:53:23.245Z,-2.40
2023-01-18T16:55:50.444Z,-2.40
2023-01-18T16:58:19.088Z,-2.40
2023-01-18T17:00:52.117Z,-2.50
2023-01-18T17:03:19.324Z,-2.60
2023-01-18T17:05:46.535Z,-2.60
2023-01-18T17:08:15.309Z,-2.60
2023-01-18T17:10:46.539Z,-2.70
2023-01-18T17:13:14.190Z,-2.70
2023-01-18T17:15:41.947Z,-2.70
2023-01-18T17:18:25.823Z,-2.80
2023-01-18T17:20:54.671Z,-2.80
2023-01-18T17:23:23.004Z,-2.90
2023-01-18T17:25:50.042Z,-3.00
2023-01-18T17:28:19.012Z,-3.10
2023-01-18T17:30:49.429Z,-3.10
2023-01-18T17:33:24.748Z,-3.10
2023-01-18T17:35:54.488Z,-3.10
2023-01-18T17:38:25.683Z,-3.10
2023-01-18T17:40:54.477Z,-3.10
2023-01-18T17:43:32.641Z,-3.20
2023-01-18T17:46:04.918Z,-3.30
2023-01-18T17:48:32.081Z,-3.40
2023-01-18T17:50:59.454Z,-3.40
2023-01-18T17:53:26.592Z,-3.40
2023-01-18T17:55:53.728Z,-3.40
2023-01-18T17:58:20.814Z,-3.40
2023-01-18T18:00:48.019Z,-3.40
2023-01-18T18:03:15.183Z,-3.40
2023-01-18T18:05:42.295Z,-3.50
2023-01-18T18:08:09.681Z,-3.50
2023-01-18T18:10:36.735Z,-3.50
2023-01-18T18:13:04.129Z,-3.50
2023-01-18T18:15:31.587Z,-3.50
2023-01-18T18:17:58.642Z,-3.50
2023-01-18T18:20:25.734Z,-3.50
2023-01-18T18:22:52.859Z,-3.50
2023-01-18T18:25:19.936Z,-3.50
2023-01-18T18:27:47.502Z,-3.50
2023-01-18T18:30:16.849Z,-3.60
2023-01-18T18:32:43.973Z,-3.60
2023-01-18T18:35:24.549Z,-3.70
2023-01-18T18:37:54.212Z,-3.70
2023-01-18T18:40:22.182Z,-3.80
2023-01-18T18:43:07.544Z,-3.80
2023-01-18T18:45:35.175Z,-3.90
2023-01-18T18:48:02.291Z,-3.90
2023-01-18T18:50:30.117Z,-3.90
2023-01-18T18:52:58.609Z,-4.00
2023-01-18T18:55:25.916Z,-4.00
2023-01-18T18:57:52.995Z,-4.10
2023-01-18T19:00:20.696Z,-4.10
2023-01-18T19:02:47.850Z,-4.10
2023-01-18T19:05:15.457Z,-4.10
2023-01-18T19:07:43.158Z,-4.10
2023-01-18T19:10:13.383Z,-4.10
2023-01-18T19:12:42.992Z,-4.10
2023-01-18T19:15:11.622Z,-4.20
2023-01-18T19:17:38.835Z,-4.20
2023-01-18T19:20:10.097Z,-4.20
2023-01-18T19:22:38.337Z,-4.20
2023-01-18T19:25:06.479Z,-4.20
2023-01-18T19:27:33.580Z,-4.20
2023-01-18T19:30:00.639Z,-4.30
2023-01-18T19:32:30.134Z,-4.30
2023-01-18T19:34:57.227Z,-4.30
2023-01-18T19:37:24.348Z,-4.30
2023-01-18T19:39:52.504Z,-4.30
2023-01-18T19:42:19.778Z,-4.20
2023-01-18T19:44:46.934Z,-4.20
2023-01-18T19:47:14.159Z,-4.20
2023-01-18T19:49:43.247Z,-4.20
2023-01-18T19:52:12.676Z,-4.30
2023-01-18T19:54:39.759Z,-4.30
2023-01-18T19:57:07.585Z,-4.30
2023-01-18T19:59:34.645Z,-4.40
2023-01-18T20:02:03.420Z,-4.40
2023-01-18T20:04:30.752Z,-4.40
2023-01-18T20:06:57.872Z,-4.40
2023-01-18T20:09:35.102Z,-4.40
2023-01-18T20:12:12.609Z,-4.50
2023-01-18T20:14:41.991Z,-4.50
2023-01-18T20:17:11.839Z,-4.60
2023-01-18T20:19:38.982Z,-4.60
2023-01-18T20:22:06.124Z,-4.70
2023-01-18T20:24:33.275Z,-4.70
2023-01-18T20:27:15.478Z,-4.60
2023-01-18T20:29:43.889Z,-4.60
2023-01-18T20:32:17.063Z,-4.60
2023-01-18T20:34:47.018Z,-4.60
2023-01-18T20:37:16.478Z,-4.60
2023-01-18T20:39:43.704Z,-4.60
2023-01-18T20:42:11.151Z,-4.60
2023-01-18T20:44:38.383Z,-4.60
2023-01-18T20:47:05.766Z,-4.70
2023-01-18T20:49:38.373Z,-4.70
2023-01-18T20:52:11.731Z,-4.70
2023-01-18T20:54:38.977Z,-4.70
2023-01-18T20:57:06.659Z,-4.70
2023-01-18T20:59:36.130Z,-4.70
2023-01-18T21:02:05.455Z,-4.70
2023-01-18T21:04:32.833Z,-4.60
2023-01-18T21:06:59.961Z,-4.60
2023-01-18T21:09:27.247Z,-4.60
2023-01-18T21:11:54.294Z,-4.50
2023-01-18T21:14:21.469Z,-4.60
2023-01-18T21:16:48.645Z,-4.60
2023-01-18T21:19:15.807Z,-4.60
2023-01-18T21:21:43.091Z,-4.70
2023-01-18T21:24:10.708Z,-4.70
2023-01-18T21:26:37.907Z,-4.70
2023-01-18T21:29:06.013Z,-4.70
2023-01-18T21:31:33.246Z,-4.80
2023-01-18T21:34:00.361Z,-4.80
2023-01-18T21:36:27.687Z,-4.80
2023-01-18T21:38:55.162Z,-4.90
2023-01-18T21:41:40.906Z,-4.90
2023-01-18T21:44:28.373Z,-4.90
2023-01-18T21:46:56.379Z,-5.00
2023-01-18T21:50:11.340Z,-5.00
2023-01-18T21:52:48.808Z,-5.00
2023-01-18T21:55:18.170Z,-5.00
2023-01-18T21:57:45.685Z,-5.10
2023-01-18T22:00:13.489Z,-5.10
2023-01-18T22:02:40.561Z,-5.10
2023-01-18T22:05:09.885Z,-5.20
2023-01-18T22:07:37.096Z,-5.20
2023-01-18T22:10:06.367Z,-5.20
2023-01-18T22:12:36.056Z,-5.20
2023-01-18T22:15:05.236Z,-5.20
2023-01-18T22:17:32.417Z,-5.20
2023-01-18T22:20:00.259Z,-5.30
2023-01-18T22:22:28.049Z,-5.30
2023-01-18T22:24:56.576Z,-5.30
2023-01-18T22:27:23.648Z,-5.30
2023-01-18T22:29:51.307Z,-5.20
2023-01-18T22:32:18.489Z,-5.20
2023-01-18T22:34:46.711Z,-5.20
2023-01-18T22:37:13.852Z,-5.20
2023-01-18T22:39:40.907Z,-5.20
2023-01-18T22:42:08.109Z,-5.20
2023-01-18T22:44:35.237Z,-5.20
2023-01-18T22:47:02.295Z,-5.20
2023-01-18T22:49:29.346Z,-5.20
2023-01-18T22:51:56.497Z,-5.20
2023-01-18T22:54:23.844Z,-5.20
2023-01-18T22:56:50.921Z,-5.20
2023-01-18T22:59:18.010Z,-5.30
2023-01-18T23:01:45.241Z,-5.30
2023-01-18T23:04:12.375Z,-5.30
2023-01-18T23:06:46.347Z,-5.30
2023-01-18T23:09:15.340Z,-5.20
2023-01-18T23:11:42.835Z,-5.20
2023-01-18T23:14:28.487Z,-5.20
2023-01-18T23:17:14.165Z,-5.10
2023-01-18T23:19:41.284Z,-4.90
2023-01-18T23:22:08.417Z,-4.90
2023-01-18T23:24:37.428Z,-4.80
2023-01-18T23:27:07.549Z,-4.70
2023-01-18T23:29:34.688Z,-4.60
2023-01-18T23:32:01.936Z,-4.60
2023-01-18T23:34:29.025Z,-4.50
2023-01-18T23:36:57.309Z,-4.40
2023-01-18T23:39:42.678Z,-4.30
2023-01-18T23:42:28.366Z,-4.10
2023-01-18T23:45:14.169Z,-4.00
2023-01-18T23:48:00.257Z,-3.70
2023-01-18T23:50:46.097Z,-3.60
2023-01-18T23:53:32.616Z,-3.60
2023-01-18T23:55:59.860Z,-3.50
2023-01-18T23:58:27.938Z,-3.50
